createdAt,value
2023-12-23T00:01:41.915Z,72.34
2023-12-23T00:04:10.258Z,72.09
2023-12-23T00:06:40.845Z,72.44
2023-12-23T00:09:09.785Z,72.59
2023-12-23T00:11:37.997Z,72.90
2023-12-23T00:14:06.768Z,73.45
2023-12-23T00:16:35.629Z,75.28
2023-12-23T00:19:05.574Z,76.22
2023-12-23T00:21:34.507Z,77.08
2023-12-23T00:24:03.441Z,78.13
2023-12-23T00:26:31.923Z,78.26
2023-12-23T00:29:00.431Z,78.48
2023-12-23T00:31:28.875Z,78.41
2023-12-23T00:33:57.376Z,78.90
2023-12-23T00:36:25.845Z,79.33
2023-12-23T00:38:54.503Z,79.40
2023-12-23T00:41:24.346Z,79.60
2023-12-23T00:43:53.056Z,79.54
2023-12-23T00:46:21.825Z,79.40
2023-12-23T00:48:50.408Z,79.16
2023-12-23T00:51:19.406Z,79.21
2023-12-23T00:53:49.083Z,79.26
2023-12-23T00:56:24.519Z,79.41
2023-12-23T00:58:53.070Z,79.34
2023-12-23T01:01:21.634Z,79.30
2023-12-23T01:03:50.125Z,79.18
2023-12-23T01:06:18.486Z,78.74
2023-12-23T01:08:46.952Z,78.41
2023-12-23T01:11:15.606Z,78.32
2023-12-23T01:13:44.349Z,78.01
2023-12-23T01:16:12.898Z,77.82
2023-12-23T01:18:42.033Z,77.78
2023-12-23T01:21:10.687Z,77.85
2023-12-23T01:23:38.822Z,78.20
2023-12-23T01:26:10.212Z,78.36
2023-12-23T01:28:38.698Z,78.45
2023-12-23T01:31:07.079Z,78.52
2023-12-23T01:33:35.835Z,78.41
2023-12-23T01:36:06.990Z,78.35
2023-12-23T01:38:36.099Z,77.71
2023-12-23T01:41:05.235Z,77.36
2023-12-23T01:43:33.593Z,77.23
2023-12-23T01:46:03.494Z,77.25
2023-12-23T01:48:37.702Z,77.10
2023-12-23T01:51:06.284Z,76.89
2023-12-23T01:53:35.284Z,76.85
2023-12-23T01:56:04.192Z,76.47
2023-12-23T01:58:33.382Z,76.09
2023-12-23T02:01:02.024Z,76.19
2023-12-23T02:03:32.992Z,75.83
2023-12-23T02:06:01.430Z,75.71
2023-12-23T02:08:39.814Z,76.11
2023-12-23T02:13:55.340Z,76.36
2023-12-23T02:16:24.488Z,76.48
2023-12-23T02:18:53.030Z,77.16
2023-12-23T02:21:21.314Z,77.59
2023-12-23T02:23:51.834Z,78.09
2023-12-23T02:26:23.755Z,78.48
2023-12-23T02:28:53.984Z,78.99
2023-12-23T02:31:23.088Z,79.44
2023-12-23T02:33:52.315Z,80.22
2023-12-23T02:36:22.439Z,80.28
2023-12-23T02:38:51.565Z,80.08
2023-12-23T02:41:20.019Z,79.83
2023-12-23T02:43:49.553Z,80.17
2023-12-23T02:46:17.730Z,80.47
2023-12-23T02:48:46.252Z,80.54
2023-12-23T02:51:14.789Z,80.50
2023-12-23T02:53:43.057Z,80.66
2023-12-23T02:56:11.453Z,81.23
2023-12-23T02:58:40.266Z,81.26
2023-12-23T03:01:09.521Z,81.41
2023-12-23T03:03:38.168Z,81.45
2023-12-23T03:06:06.615Z,81.22
2023-12-23T03:08:37.931Z,80.85
2023-12-23T03:11:06.356Z,80.32
2023-12-23T03:13:36.242Z,80.08
2023-12-23T03:16:15.942Z,79.63
2023-12-23T03:18:45.021Z,79.10
2023-12-23T03:21:13.571Z,78.49
2023-12-23T03:23:42.455Z,77.88
2023-12-23T03:26:11.855Z,77.36
2023-12-23T03:28:40.241Z,76.98
2023-12-23T03:31:09.521Z,76.19
2023-12-23T03:33:38.012Z,76.21
2023-12-23T03:36:09.422Z,75.91
2023-12-23T03:38:37.743Z,75.43
2023-12-23T03:41:05.933Z,75.42
2023-12-23T03:43:34.103Z,75.38
2023-12-23T03:46:02.667Z,74.64
2023-12-23T03:48:31.082Z,74.51
2023-12-23T03:50:59.635Z,74.46
2023-12-23T03:53:28.053Z,74.21
2023-12-23T03:55:56.475Z,73.40
2023-12-23T03:58:24.789Z,73.88
2023-12-23T04:00:53.812Z,73.05
2023-12-23T04:03:22.094Z,73.25
2023-12-23T04:05:50.532Z,73.74
2023-12-23T04:08:19.077Z,73.58
2023-12-23T04:10:47.807Z,73.98
2023-12-23T04:13:18.225Z,73.32
2023-12-23T04:15:46.631Z,73.63
2023-12-23T04:18:15.355Z,74.30
2023-12-23T04:20:43.878Z,74.69
2023-12-23T04:23:12.353Z,75.34
2023-12-23T04:25:40.758Z,75.64
2023-12-23T04:28:09.388Z,75.27
2023-12-23T04:30:38.115Z,75.00
2023-12-23T04:33:06.852Z,74.73
2023-12-23T04:35:35.398Z,74.12
2023-12-23T04:38:04.047Z,73.17
2023-12-23T04:40:32.529Z,72.78
2023-12-23T04:43:01.385Z,72.64
2023-12-23T04:45:30.115Z,72.33
2023-12-23T04:47:58.640Z,72.16
2023-12-23T04:50:27.227Z,72.18
2023-12-23T04:52:55.656Z,72.03
2023-12-23T04:55:27.109Z,71.86
2023-12-23T04:57:55.825Z,71.85
2023-12-23T05:00:24.167Z,71.63
2023-12-23T05:02:52.994Z,71.69
2023-12-23T05:05:21.591Z,72.00
2023-12-23T05:07:54.227Z,72.56
2023-12-23T05:10:23.221Z,73.28
2023-12-23T05:12:52.141Z,73.82
2023-12-23T05:15:20.797Z,74.62
2023-12-23T05:17:49.772Z,74.98
2023-12-23T05:20:18.353Z,74.38
2023-12-23T05:22:46.858Z,73.84
2023-12-23T05:25:15.437Z,74.13
2023-12-23T05:27:43.923Z,74.46
2023-12-23T05:30:13.465Z,74.61
2023-12-23T05:32:41.860Z,74.69
2023-12-23T05:35:10.466Z,74.66
2023-12-23T05:37:39.115Z,74.28
2023-12-23T05:40:09.213Z,73.63
2023-12-23T05:42:37.526Z,73.55
2023-12-23T05:45:06.866Z,73.24
2023-12-23T05:47:35.361Z,72.89
2023-12-23T05:50:03.936Z,72.86
2023-12-23T05:52:33.699Z,72.66
2023-12-23T05:55:02.837Z,72.40
2023-12-23T05:57:31.463Z,72.26
2023-12-23T05:59:59.922Z,72.18
2023-12-23T06:02:30.082Z,72.29
2023-12-23T06:04:59.511Z,72.47
2023-12-23T06:07:27.814Z,72.37
2023-12-23T06:09:56.718Z,72.34
2023-12-23T06:12:25.381Z,72.35
2023-12-23T06:14:57.514Z,72.49
2023-12-23T06:17:27.275Z,72.60
2023-12-23T06:19:55.892Z,72.69
2023-12-23T06:22:24.448Z,72.64
2023-12-23T06:24:53.015Z,72.54
2023-12-23T06:27:21.395Z,72.46
2023-12-23T06:29:49.694Z,72.54
2023-12-23T06:32:18.384Z,72.37
2023-12-23T06:34:47.395Z,72.42
2023-12-23T06:37:15.839Z,72.43
2023-12-23T06:39:44.217Z,72.40
2023-12-23T06:42:13.309Z,72.46
2023-12-23T06:44:41.910Z,72.44
2023-12-23T06:47:10.500Z,72.16
2023-12-23T06:49:39.686Z,71.81
2023-12-23T06:52:08.673Z,71.49
2023-12-23T06:54:37.590Z,71.36
2023-12-23T06:57:06.854Z,71.39
2023-12-23T06:59:35.444Z,71.44
2023-12-23T07:02:04.072Z,71.33
2023-12-23T07:04:33.347Z,71.12
2023-12-23T07:07:01.966Z,71.07
2023-12-23T07:09:30.719Z,70.86
2023-12-23T07:11:59.710Z,70.74
2023-12-23T07:14:28.903Z,70.88
2023-12-23T07:16:57.538Z,70.73
2023-12-23T07:19:26.653Z,70.49
2023-12-23T07:21:56.047Z,70.45
2023-12-23T07:24:24.966Z,70.17
2023-12-23T07:26:53.761Z,69.95
2023-12-23T07:29:23.062Z,69.84
2023-12-23T07:31:52.066Z,69.71
2023-12-23T07:34:20.446Z,69.70
2023-12-23T07:36:48.856Z,69.77
2023-12-23T07:39:18.960Z,69.78
2023-12-23T07:41:47.436Z,69.80
2023-12-23T07:44:16.045Z,69.62
2023-12-23T07:46:44.579Z,69.58
2023-12-23T07:49:14.197Z,69.63
2023-12-23T07:51:43.182Z,69.41
2023-12-23T07:54:11.730Z,69.36
2023-12-23T07:56:40.246Z,69.47
2023-12-23T07:59:08.766Z,69.50
2023-12-23T08:01:47.297Z,69.22
2023-12-23T08:04:17.306Z,69.26
2023-12-23T08:06:45.962Z,69.13
2023-12-23T08:09:14.752Z,68.86
2023-12-23T08:11:44.076Z,68.53
2023-12-23T08:14:13.387Z,68.49
2023-12-23T08:16:42.674Z,68.53
2023-12-23T08:19:11.245Z,68.36
2023-12-23T08:21:39.912Z,68.11
2023-12-23T08:24:08.712Z,68.32
2023-12-23T08:26:37.913Z,68.34
2023-12-23T08:29:06.525Z,68.44
2023-12-23T08:31:35.318Z,68.32
2023-12-23T08:34:04.026Z,68.57
2023-12-23T08:36:32.742Z,68.79
2023-12-23T08:39:01.549Z,68.72
2023-12-23T08:41:30.222Z,68.85
2023-12-23T08:43:58.798Z,68.74
2023-12-23T08:46:29.507Z,68.92
2023-12-23T08:48:59.521Z,69.06
2023-12-23T08:51:33.409Z,68.82
2023-12-23T08:54:02.408Z,68.94
2023-12-23T08:56:31.091Z,69.01
2023-12-23T08:58:59.978Z,69.05
2023-12-23T09:01:28.715Z,69.06
2023-12-23T09:03:57.294Z,69.07
2023-12-23T09:06:25.774Z,69.15
2023-12-23T09:08:58.939Z,69.30
2023-12-23T09:11:27.766Z,69.51
2023-12-23T09:13:56.376Z,69.53
2023-12-23T09:16:25.224Z,69.54
2023-12-23T09:18:54.027Z,69.68
2023-12-23T09:21:23.208Z,69.72
2023-12-23T09:23:52.105Z,69.93
2023-12-23T09:26:20.948Z,70.16
2023-12-23T09:28:49.706Z,70.46
2023-12-23T09:31:18.901Z,70.59
2023-12-23T09:33:49.021Z,70.82
2023-12-23T09:36:18.644Z,71.14
2023-12-23T09:38:48.131Z,71.33
2023-12-23T09:41:17.552Z,71.44
2023-12-23T09:43:46.413Z,71.59
2023-12-23T09:46:18.252Z,71.75
2023-12-23T09:48:48.554Z,71.62
2023-12-23T09:51:21.498Z,71.85
2023-12-23T09:53:55.780Z,71.94
2023-12-23T09:56:28.931Z,72.02
2023-12-23T09:58:58.553Z,72.23
2023-12-23T10:01:27.964Z,72.55
2023-12-23T10:03:56.894Z,72.77
2023-12-23T10:06:25.651Z,72.96
2023-12-23T10:08:54.987Z,72.97
2023-12-23T10:11:26.041Z,72.94
2023-12-23T10:13:55.153Z,72.99
2023-12-23T10:16:24.210Z,72.97
2023-12-23T10:18:52.816Z,72.82
2023-12-23T10:21:22.301Z,72.94
2023-12-23T10:23:50.763Z,72.98
2023-12-23T10:26:19.712Z,73.05
2023-12-23T10:28:55.302Z,72.90
2023-12-23T10:31:27.954Z,72.80
2023-12-23T10:34:08.711Z,73.01
2023-12-23T10:36:42.548Z,72.78
2023-12-23T10:39:19.160Z,72.77
2023-12-23T10:41:57.268Z,72.92
2023-12-23T10:44:28.426Z,73.33
2023-12-23T10:46:57.936Z,73.44
2023-12-23T10:49:28.051Z,73.51
2023-12-23T10:51:57.823Z,73.42
2023-12-23T10:54:29.327Z,73.62
2023-12-23T10:57:00.808Z,73.68
2023-12-23T10:59:30.082Z,73.91
2023-12-23T11:02:02.272Z,73.82
2023-12-23T11:04:31.221Z,74.15
2023-12-23T11:07:03.192Z,74.99
2023-12-23T11:09:33.077Z,74.93
2023-12-23T11:12:02.071Z,75.45
2023-12-23T11:14:30.780Z,76.59
2023-12-23T11:16:59.678Z,77.08
2023-12-23T11:19:28.924Z,77.51
2023-12-23T11:22:22.933Z,78.23
2023-12-23T11:24:52.221Z,78.75
2023-12-23T11:27:35.568Z,79.10
2023-12-23T11:30:09.601Z,79.49
2023-12-23T11:32:43.292Z,79.37
2023-12-23T11:35:14.178Z,79.87
2023-12-23T11:37:55.833Z,80.45
2023-12-23T11:40:24.717Z,80.34
2023-12-23T11:42:54.328Z,80.65
2023-12-23T11:45:23.716Z,81.17
2023-12-23T11:47:53.318Z,81.30
2023-12-23T11:50:22.367Z,81.27
2023-12-23T11:52:52.336Z,81.43
2023-12-23T11:55:22.107Z,81.32
2023-12-23T11:57:51.529Z,81.22
2023-12-23T12:00:21.060Z,81.13
2023-12-23T12:02:50.793Z,80.77
2023-12-23T12:05:20.969Z,80.83
2023-12-23T12:07:51.054Z,81.60
2023-12-23T12:10:20.616Z,81.44
2023-12-23T12:12:50.832Z,82.20
2023-12-23T12:15:19.862Z,82.70
2023-12-23T12:17:50.499Z,83.04
2023-12-23T12:20:22.219Z,83.55
2023-12-23T12:22:54.504Z,84.02
2023-12-23T12:25:28.117Z,84.92
2023-12-23T12:28:00.591Z,85.81
2023-12-23T12:30:31.245Z,86.08
2023-12-23T12:33:02.109Z,86.11
2023-12-23T12:35:32.984Z,86.80
2023-12-23T12:38:11.402Z,86.97
2023-12-23T12:40:47.439Z,86.92
2023-12-23T12:43:17.668Z,86.63
2023-12-23T12:45:50.399Z,86.31
2023-12-23T12:48:23.078Z,86.18
2023-12-23T12:50:56.852Z,85.95
2023-12-23T12:53:31.916Z,85.98
2023-12-23T12:56:14.024Z,85.60
2023-12-23T12:58:47.114Z,85.36
2023-12-23T13:01:19.633Z,85.07
2023-12-23T13:03:51.978Z,84.15
2023-12-23T13:06:24.304Z,83.75
2023-12-23T13:08:54.428Z,83.09
2023-12-23T13:11:26.305Z,82.96
2023-12-23T13:13:58.397Z,82.92
2023-12-23T13:16:29.756Z,82.99
2023-12-23T13:19:01.374Z,83.17
2023-12-23T13:21:32.284Z,84.04
2023-12-23T13:24:03.276Z,83.84
2023-12-23T13:26:32.934Z,83.60
2023-12-23T13:29:01.611Z,83.94
2023-12-23T13:31:31.515Z,83.86
2023-12-23T13:34:02.172Z,83.93
2023-12-23T13:36:53.486Z,84.18
2023-12-23T13:39:24.866Z,84.47
2023-12-23T13:41:53.799Z,84.53
2023-12-23T13:44:23.737Z,84.69
2023-12-23T13:46:55.761Z,84.87
2023-12-23T13:49:25.010Z,85.02
2023-12-23T13:51:54.297Z,85.24
2023-12-23T13:54:24.562Z,84.90
2023-12-23T13:56:53.799Z,84.92
2023-12-23T13:59:23.148Z,85.21
2023-12-23T14:01:53.174Z,85.76
2023-12-23T14:04:22.118Z,86.37
2023-12-23T14:06:51.503Z,86.69
2023-12-23T14:09:21.133Z,87.08
2023-12-23T14:11:50.326Z,87.32
2023-12-23T14:14:20.360Z,87.06
2023-12-23T14:16:50.422Z,87.01
2023-12-23T14:19:20.639Z,86.82
2023-12-23T14:21:49.688Z,86.70
2023-12-23T14:24:19.474Z,86.84
2023-12-23T14:26:49.281Z,86.70
2023-12-23T14:29:19.719Z,86.67
2023-12-23T14:31:50.087Z,86.61
2023-12-23T14:34:19.523Z,86.59
2023-12-23T14:36:50.173Z,86.53
2023-12-23T14:39:24.585Z,86.45
2023-12-23T14:41:54.268Z,86.38
2023-12-23T14:44:23.499Z,86.44
2023-12-23T14:46:53.608Z,86.49
2023-12-23T14:49:24.331Z,86.45
2023-12-23T14:51:53.521Z,86.51
2023-12-23T14:54:22.600Z,86.60
2023-12-23T14:56:51.413Z,86.58
2023-12-23T14:59:20.454Z,86.57
2023-12-23T15:01:49.935Z,86.71
2023-12-23T15:04:19.271Z,86.77
2023-12-23T15:06:49.420Z,86.74
2023-12-23T15:09:18.641Z,86.65
2023-12-23T15:11:48.533Z,86.60
2023-12-23T15:14:17.449Z,86.63
2023-12-23T15:16:46.657Z,86.59
2023-12-23T15:19:16.039Z,86.63
2023-12-23T15:21:45.942Z,86.50
2023-12-23T15:24:15.553Z,86.56
2023-12-23T15:26:45.073Z,86.61
2023-12-23T15:29:14.368Z,86.62
2023-12-23T15:31:43.613Z,86.94
2023-12-23T15:34:12.661Z,86.98
2023-12-23T15:36:41.801Z,86.88
2023-12-23T15:39:11.288Z,86.94
2023-12-23T15:41:41.052Z,87.12
2023-12-23T15:44:10.420Z,87.06
2023-12-23T15:46:39.941Z,87.13
2023-12-23T15:49:10.164Z,87.29
2023-12-23T15:51:39.708Z,87.39
2023-12-23T15:54:11.500Z,87.37
2023-12-23T15:56:40.925Z,87.40
2023-12-23T15:59:10.530Z,87.31
2023-12-23T16:01:39.369Z,87.45
2023-12-23T16:04:08.784Z,87.57
2023-12-23T16:06:38.013Z,87.43
2023-12-23T16:09:06.651Z,87.48
2023-12-23T16:11:38.466Z,87.55
2023-12-23T16:14:08.159Z,87.36
2023-12-23T16:16:37.336Z,87.29
2023-12-23T16:19:06.537Z,87.10
2023-12-23T16:21:35.652Z,87.05
2023-12-23T16:24:05.537Z,86.89
2023-12-23T16:26:35.141Z,86.87
2023-12-23T16:29:04.696Z,86.82
2023-12-23T16:31:33.700Z,86.82
2023-12-23T16:34:03.259Z,86.78
2023-12-23T16:36:32.922Z,86.70
2023-12-23T16:39:02.042Z,86.69
2023-12-23T16:41:31.471Z,86.58
2023-12-23T16:44:00.874Z,86.48
2023-12-23T16:46:30.337Z,86.37
2023-12-23T16:48:59.564Z,86.11
2023-12-23T16:51:28.718Z,85.91
2023-12-23T16:53:58.320Z,85.74
2023-12-23T16:56:27.536Z,85.50
2023-12-23T16:58:56.452Z,85.44
2023-12-23T17:01:25.967Z,85.32
2023-12-23T17:03:55.175Z,85.22
2023-12-23T17:06:24.752Z,85.14
2023-12-23T17:08:54.572Z,85.09
2023-12-23T17:11:24.459Z,85.02
2023-12-23T17:13:53.656Z,84.95
2023-12-23T17:16:22.756Z,84.79
2023-12-23T17:18:52.224Z,84.69
2023-12-23T17:21:21.989Z,84.60
2023-12-23T17:23:51.682Z,84.46
2023-12-23T17:26:21.045Z,84.35
2023-12-23T17:28:50.358Z,84.38
2023-12-23T17:31:20.208Z,84.03
2023-12-23T17:33:50.457Z,83.88
2023-12-23T17:36:23.705Z,83.68
2023-12-23T17:38:53.343Z,83.58
2023-12-23T17:41:23.487Z,83.48
2023-12-23T17:43:53.208Z,83.44
2023-12-23T17:46:22.654Z,83.34
2023-12-23T17:48:51.890Z,83.09
2023-12-23T17:51:24.739Z,82.99
2023-12-23T17:53:55.005Z,82.89
2023-12-23T17:56:24.548Z,82.90
2023-12-23T17:58:53.995Z,82.73
2023-12-23T18:01:23.414Z,82.76
2023-12-23T18:03:52.374Z,82.70
2023-12-23T18:06:23.118Z,82.58
2023-12-23T18:08:52.202Z,82.58
2023-12-23T18:11:21.746Z,82.42
2023-12-23T18:13:51.108Z,82.28
2023-12-23T18:16:20.625Z,82.29
2023-12-23T18:18:50.212Z,82.18
2023-12-23T18:21:19.413Z,82.21
2023-12-23T18:23:48.624Z,82.16
2023-12-23T18:26:17.621Z,82.17
2023-12-23T18:28:46.402Z,82.24
2023-12-23T18:31:16.110Z,82.36
2023-12-23T18:33:44.887Z,82.38
2023-12-23T18:36:13.879Z,82.44
2023-12-23T18:38:42.488Z,82.49
2023-12-23T18:41:12.438Z,82.52
2023-12-23T18:43:41.269Z,82.64
2023-12-23T18:46:10.871Z,82.64
2023-12-23T18:48:42.644Z,82.62
2023-12-23T18:51:11.956Z,82.77
2023-12-23T18:53:42.172Z,82.89
2023-12-23T18:56:11.590Z,82.96
2023-12-23T18:58:41.605Z,82.97
2023-12-23T19:01:10.619Z,82.97
2023-12-23T19:03:40.200Z,83.05
2023-12-23T19:06:09.287Z,83.04
2023-12-23T19:08:39.536Z,83.05
2023-12-23T19:11:09.808Z,82.96
2023-12-23T19:13:39.245Z,82.82
2023-12-23T19:16:11.111Z,82.86
2023-12-23T19:18:42.307Z,82.79
2023-12-23T19:21:11.438Z,82.75
2023-12-23T19:23:40.529Z,82.76
2023-12-23T19:26:10.065Z,82.71
2023-12-23T19:28:38.839Z,82.63
2023-12-23T19:31:07.836Z,82.62
2023-12-23T19:33:37.073Z,82.51
2023-12-23T19:36:07.804Z,82.54
2023-12-23T19:38:38.527Z,82.47
2023-12-23T19:41:07.246Z,82.43
2023-12-23T19:43:36.304Z,82.39
2023-12-23T19:46:07.193Z,82.33
2023-12-23T19:48:36.636Z,82.33
2023-12-23T19:51:05.514Z,82.39
2023-12-23T19:53:34.506Z,82.31
2023-12-23T19:56:04.449Z,82.43
2023-12-23T19:58:33.242Z,82.46
2023-12-23T20:01:02.612Z,82.56
2023-12-23T20:03:31.918Z,82.54
2023-12-23T20:06:00.929Z,82.51
2023-12-23T20:08:30.547Z,82.48
2023-12-23T20:11:00.064Z,82.41
2023-12-23T20:13:29.599Z,82.48
2023-12-23T20:15:59.581Z,82.45
2023-12-23T20:18:30.046Z,82.39
2023-12-23T20:21:00.329Z,82.37
2023-12-23T20:23:29.259Z,82.22
2023-12-23T20:25:58.409Z,82.12
2023-12-23T20:28:27.145Z,82.24
2023-12-23T20:30:56.056Z,82.36
2023-12-23T20:33:25.665Z,82.44
2023-12-23T20:35:55.925Z,82.50
2023-12-23T20:38:26.895Z,82.58
2023-12-23T20:40:56.411Z,82.83
2023-12-23T20:43:27.388Z,82.79
2023-12-23T20:45:56.811Z,82.80
2023-12-23T20:48:29.204Z,82.68
2023-12-23T20:50:59.108Z,82.58
2023-12-23T20:53:29.631Z,82.45
2023-12-23T20:56:01.755Z,82.58
2023-12-23T20:58:34.402Z,82.61
2023-12-23T21:01:08.985Z,82.45
2023-12-23T21:03:40.779Z,82.37
2023-12-23T21:06:10.517Z,82.36
2023-12-23T21:08:39.834Z,82.23
2023-12-23T21:11:09.297Z,82.22
2023-12-23T21:13:38.972Z,82.13
2023-12-23T21:16:13.713Z,82.07
2023-12-23T21:18:45.833Z,81.98
2023-12-23T21:21:16.017Z,81.98
2023-12-23T21:23:45.436Z,81.95
2023-12-23T21:26:23.658Z,82.01
2023-12-23T21:28:54.782Z,81.90
2023-12-23T21:31:24.364Z,81.96
2023-12-23T21:33:54.097Z,81.86
2023-12-23T21:36:22.928Z,81.94
2023-12-23T21:38:53.077Z,82.01
2023-12-23T21:41:22.563Z,81.98
2023-12-23T21:43:51.957Z,82.01
2023-12-23T21:46:21.409Z,81.98
2023-12-23T21:48:50.828Z,82.05
2023-12-23T21:51:21.970Z,82.10
2023-12-23T21:53:51.782Z,82.25
2023-12-23T21:56:20.702Z,82.36
2023-12-23T21:58:49.944Z,82.52
2023-12-23T22:01:19.827Z,82.59
2023-12-23T22:03:50.248Z,82.80
2023-12-23T22:06:21.767Z,83.11
2023-12-23T22:08:52.248Z,83.15
2023-12-23T22:11:22.107Z,83.27
2023-12-23T22:13:52.180Z,83.39
2023-12-23T22:16:21.249Z,83.40
2023-12-23T22:18:50.779Z,83.54
2023-12-23T22:21:20.102Z,83.59
2023-12-23T22:23:49.496Z,83.69
2023-12-23T22:26:19.439Z,83.74
2023-12-23T22:28:49.005Z,83.72
2023-12-23T22:31:18.016Z,83.70
2023-12-23T22:33:47.190Z,83.76
2023-12-23T22:36:16.319Z,83.78
2023-12-23T22:38:45.661Z,83.89
2023-12-23T22:41:14.849Z,83.79
2023-12-23T22:43:44.275Z,83.80
2023-12-23T22:46:13.427Z,83.77
2023-12-23T22:48:42.207Z,83.91
2023-12-23T22:51:11.408Z,83.92
2023-12-23T22:53:40.606Z,83.73
2023-12-23T22:56:09.604Z,83.65
2023-12-23T22:58:39.786Z,83.82
2023-12-23T23:01:15.424Z,84.23
2023-12-23T23:03:44.458Z,84.53
2023-12-23T23:06:13.269Z,84.58
2023-12-23T23:08:41.925Z,84.74
2023-12-23T23:11:11.106Z,84.88
2023-12-23T23:13:40.567Z,84.87
2023-12-23T23:16:12.851Z,84.87
2023-12-23T23:18:42.583Z,84.72
2023-12-23T23:21:11.252Z,84.71
2023-12-23T23:23:39.845Z,84.57
2023-12-23T23:26:09.354Z,84.51
2023-12-23T23:28:38.126Z,84.39
2023-12-23T23:31:07.725Z,84.45
2023-12-23T23:33:36.791Z,84.29
2023-12-23T23:36:06.041Z,84.30
2023-12-23T23:38:34.758Z,84.38
2023-12-23T23:41:03.683Z,84.24
2023-12-23T23:43:33.504Z,84.18
2023-12-23T23:46:02.011Z,84.13
2023-12-23T23:48:30.707Z,84.00
2023-12-23T23:50:59.472Z,83.88
2023-12-23T23:53:28.409Z,83.91
2023-12-23T23:55:57.498Z,84.06
2023-12-23T23:58:26.349Z,83.97
